Time;durP1;ratioP1;P1;durP2;ratioP2;P2;SDS_P1;SDS_P2;PMS_P1;PMS_P2;Temp;Humidity;BMP_temperature;BMP_pressure;BME280_temperature;BME280_humidity;BME280_pressure;Samples;Min_cycle;Max_cycle;Signal;HPM_P1;HPM_P2
2023/03/08 00:03:07;;;;;;;;;;;16.80;44.50;;;;;;10366604;28;1965;-74
2023/03/08 00:08:02;;;;;;;;;;;16.80;44.40;;;;;;10366176;28;965;-74
2023/03/08 00:12:58;;;;;;;;;;;16.80;44.30;;;;;;10365875;28;905;-74
2023/03/08 00:17:53;;;;;;;;;;;16.80;44.40;;;;;;10365811;28;868;-74
2023/03/08 00:22:48;;;;;;;;;;;16.80;44.40;;;;;;10365711;28;936;-74
2023/03/08 00:27:44;;;;;;;;;;;16.80;44.40;;;;;;10366369;28;1951;-74
2023/03/08 00:32:39;;;;;;;;;;;16.80;44.30;;;;;;10374135;28;767;-74
2023/03/08 00:37:35;;;;;;;;;;;16.80;44.30;;;;;;10373993;28;866;-75
2023/03/08 00:42:30;;;;;;;;;;;16.70;44.40;;;;;;10372927;28;1191;-74
2023/03/08 00:47:25;;;;;;;;;;;16.80;44.40;;;;;;10373725;28;1905;-74
2023/03/08 00:52:21;;;;;;;;;;;16.70;44.30;;;;;;10372144;28;964;-74
2023/03/08 00:57:16;;;;;;;;;;;16.70;44.40;;;;;;10373186;28;960;-74
2023/03/08 01:02:11;;;;;;;;;;;16.70;44.40;;;;;;10372997;28;951;-74
2023/03/08 01:07:07;;;;;;;;;;;16.70;44.30;;;;;;10372165;28;1894;-74
2023/03/08 01:12:02;;;;;;;;;;;16.70;44.40;;;;;;10372703;28;925;-74
2023/03/08 01:16:58;;;;;;;;;;;16.70;44.40;;;;;;10371895;28;810;-74
2023/03/08 01:21:53;;;;;;;;;;;16.70;44.30;;;;;;10372839;28;890;-74
2023/03/08 01:26:48;;;;;;;;;;;16.80;44.30;;;;;;10371974;28;1898;-74
2023/03/08 01:31:44;;;;;;;;;;;16.70;44.30;;;;;;10371900;28;791;-74
2023/03/08 01:36:39;;;;;;;;;;;16.70;44.40;;;;;;10371068;28;795;-74
2023/03/08 01:41:34;;;;;;;;;;;16.80;44.40;;;;;;10371133;28;1379;-74
2023/03/08 01:46:30;;;;;;;;;;;16.70;44.40;;;;;;10369992;28;1969;-74
2023/03/08 01:51:25;;;;;;;;;;;16.70;44.40;;;;;;10369915;28;888;-74
2023/03/08 01:56:20;;;;;;;;;;;16.70;44.20;;;;;;10370895;28;833;-74
2023/03/08 02:01:16;;;;;;;;;;;16.70;44.40;;;;;;10370858;28;940;-74
2023/03/08 02:06:11;;;;;;;;;;;16.70;44.40;;;;;;10369850;28;1965;-74
2023/03/08 02:11:06;;;;;;;;;;;16.70;44.40;;;;;;10368924;28;1069;-74
2023/03/08 02:16:02;;;;;;;;;;;16.70;44.40;;;;;;10369494;28;1027;-74
2023/03/08 02:20:57;;;;;;;;;;;16.60;44.40;;;;;;10369338;28;823;-74
2023/03/08 02:25:53;;;;;;;;;;;16.70;44.40;;;;;;10369044;28;1961;-74
2023/03/08 02:30:48;;;;;;;;;;;16.70;44.40;;;;;;10369353;28;810;-74
2023/03/08 02:35:43;;;;;;;;;;;16.70;44.40;;;;;;10368763;28;772;-74
2023/03/08 02:40:39;;;;;;;;;;;16.70;44.40;;;;;;10369828;28;1130;-74
2023/03/08 02:45:34;;;;;;;;;;;16.70;44.40;;;;;;10368710;28;1969;-74
2023/03/08 02:50:30;;;;;;;;;;;16.60;44.40;;;;;;10367525;28;917;-74
2023/03/08 02:55:26;;;;;;;;;;;16.70;44.40;;;;;;10367768;28;880;-74
2023/03/08 03:00:21;;;;;;;;;;;16.70;44.30;;;;;;10368053;28;869;-74
2023/03/08 03:05:16;;;;;;;;;;;16.70;44.30;;;;;;10349393;28;1955;-74
2023/03/08 03:10:12;;;;;;;;;;;16.70;44.40;;;;;;10368178;28;879;-74
2023/03/08 03:15:08;;;;;;;;;;;16.70;44.30;;;;;;10367273;28;1093;-74
2023/03/08 03:20:05;;;;;;;;;;;16.70;44.40;;;;;;10366994;28;1176;-74
2023/03/08 03:25:00;;;;;;;;;;;16.60;44.30;;;;;;10366892;28;1891;-74
2023/03/08 03:29:56;;;;;;;;;;;16.60;44.40;;;;;;10366889;28;855;-74
2023/03/08 03:34:51;;;;;;;;;;;16.60;44.30;;;;;;10366765;28;795;-74
2023/03/08 03:39:46;;;;;;;;;;;16.60;44.40;;;;;;10366704;28;1524;-74
2023/03/08 03:44:42;;;;;;;;;;;16.60;44.40;;;;;;10366305;28;1906;-74
2023/03/08 03:49:37;;;;;;;;;;;16.60;44.40;;;;;;10366363;28;881;-74
2023/03/08 03:54:33;;;;;;;;;;;16.60;44.40;;;;;;10366253;28;800;-74
2023/03/08 03:59:28;;;;;;;;;;;16.60;44.40;;;;;;10366115;28;878;-74
2023/03/08 04:04:23;;;;;;;;;;;16.60;44.30;;;;;;10370823;28;1874;-74
2023/03/08 04:09:19;;;;;;;;;;;16.60;44.30;;;;;;10374642;28;865;-74
2023/03/08 04:14:14;;;;;;;;;;;16.60;44.30;;;;;;10373784;28;1033;-74
2023/03/08 04:19:10;;;;;;;;;;;16.60;44.40;;;;;;10374184;28;844;-74
2023/03/08 04:24:05;;;;;;;;;;;16.60;44.40;;;;;;10374591;28;1910;-74
2023/03/08 04:29:04;;;;;;;;;;;16.60;44.40;;;;;;10374481;28;923;-74
2023/03/08 04:34:00;;;;;;;;;;;16.60;44.40;;;;;;10374158;28;969;-74
2023/03/08 04:38:56;;;;;;;;;;;16.60;44.40;;;;;;10373684;28;1176;-75
2023/03/08 04:43:51;;;;;;;;;;;16.60;44.40;;;;;;10373214;28;1913;-74
2023/03/08 04:48:46;;;;;;;;;;;16.60;44.50;;;;;;10373705;28;806;-74
2023/03/08 04:53:44;;;;;;;;;;;16.60;44.50;;;;;;10372140;28;991;-74
2023/03/08 04:58:39;;;;;;;;;;;16.60;44.50;;;;;;10372528;28;936;-74
2023/03/08 05:03:34;;;;;;;;;;;16.60;44.50;;;;;;10372391;28;1905;-74
2023/03/08 05:08:30;;;;;;;;;;;16.60;44.50;;;;;;10372807;28;901;-74
2023/03/08 05:13:25;;;;;;;;;;;16.60;44.40;;;;;;10372065;28;1042;-74
2023/03/08 05:18:21;;;;;;;;;;;16.70;44.40;;;;;;10372151;28;823;-74
2023/03/08 05:23:16;;;;;;;;;;;16.70;44.40;;;;;;10354054;28;1956;-75
2023/03/08 05:28:14;;;;;;;;;;;16.70;44.30;;;;;;10372090;28;909;-76
2023/03/08 05:33:10;;;;;;;;;;;16.70;44.30;;;;;;10371137;28;992;-75
2023/03/08 05:38:05;;;;;;;;;;;16.70;44.30;;;;;;10371409;28;861;-76
2023/03/08 05:43:00;;;;;;;;;;;16.80;44.20;;;;;;10370851;28;1160;-75
2023/03/08 05:47:56;;;;;;;;;;;16.70;44.20;;;;;;10370258;28;1909;-75
2023/03/08 05:52:51;;;;;;;;;;;16.70;44.30;;;;;;10370190;28;787;-76
2023/03/08 05:57:46;;;;;;;;;;;16.70;44.20;;;;;;10370535;28;835;-75
2023/03/08 06:02:42;;;;;;;;;;;16.70;44.30;;;;;;10367825;28;998;-75
2023/03/08 06:07:38;;;;;;;;;;;16.70;44.20;;;;;;10369861;28;1959;-76
2023/03/08 06:12:33;;;;;;;;;;;16.80;44.20;;;;;;10368983;28;948;-75
2023/03/08 06:17:28;;;;;;;;;;;16.70;44.30;;;;;;10369773;28;880;-76
2023/03/08 06:22:24;;;;;;;;;;;16.70;44.20;;;;;;10361770;28;1662;-79
2023/03/08 06:27:19;;;;;;;;;;;16.80;44.20;;;;;;10386196;28;1911;-78
2023/03/08 06:32:14;;;;;;;;;;;16.80;44.30;;;;;;10388447;28;895;-76
2023/03/08 06:37:10;;;;;;;;;;;16.80;44.70;;;;;;10408679;28;866;-75
2023/03/08 06:42:06;;;;;;;;;;;16.80;44.10;;;;;;10408679;28;1195;-73
2023/03/08 06:47:01;;;;;;;;;;;16.80;44.10;;;;;;10409376;28;1918;-75
2023/03/08 06:51:56;;;;;;;;;;;16.80;44.30;;;;;;10409940;28;848;-75
2023/03/08 06:56:52;;;;;;;;;;;16.80;44.20;;;;;;10409735;28;881;-76
2023/03/08 07:01:47;;;;;;;;;;;16.70;44.30;;;;;;10408869;28;1137;-76
2023/03/08 07:06:43;;;;;;;;;;;16.80;44.30;;;;;;10409041;28;1906;-76
2023/03/08 07:11:38;;;;;;;;;;;16.70;44.30;;;;;;10408973;28;853;-75
2023/03/08 07:16:33;;;;;;;;;;;16.70;44.30;;;;;;10408749;28;915;-75
2023/03/08 07:21:29;;;;;;;;;;;16.60;44.40;;;;;;10409182;28;767;-75
2023/03/08 07:26:24;;;;;;;;;;;16.60;44.40;;;;;;10409231;28;1965;-77
2023/03/08 07:31:20;;;;;;;;;;;16.60;44.40;;;;;;10408262;28;755;-77
2023/03/08 07:36:15;;;;;;;;;;;16.70;44.40;;;;;;10408038;28;838;-77
2023/03/08 07:41:10;;;;;;;;;;;16.70;44.40;;;;;;10407816;28;1400;-78
2023/03/08 07:46:06;;;;;;;;;;;16.70;44.40;;;;;;10408424;28;1974;-78
2023/03/08 07:51:01;;;;;;;;;;;16.80;44.30;;;;;;10407803;28;768;-78
2023/03/08 07:55:57;;;;;;;;;;;16.80;44.30;;;;;;10407639;28;902;-78
2023/03/08 08:00:53;;;;;;;;;;;16.80;44.40;;;;;;10407512;28;965;-78
2023/03/08 08:05:48;;;;;;;;;;;16.70;44.30;;;;;;10407744;28;1909;-78
2023/03/08 08:10:43;;;;;;;;;;;16.70;44.30;;;;;;10407358;28;939;-78
2023/03/08 08:15:39;;;;;;;;;;;16.70;44.30;;;;;;10407340;28;863;-77
2023/03/08 08:20:34;;;;;;;;;;;16.70;44.30;;;;;;10407953;28;870;-77
2023/03/08 08:25:30;;;;;;;;;;;16.70;44.30;;;;;;10407093;28;1906;-77
2023/03/08 08:30:25;;;;;;;;;;;16.70;44.30;;;;;;10407094;28;878;-75
2023/03/08 08:35:20;;;;;;;;;;;16.70;44.30;;;;;;10406383;28;921;-78
2023/03/08 08:40:16;;;;;;;;;;;16.80;44.30;;;;;;10406982;28;1169;-78
2023/03/08 08:45:11;;;;;;;;;;;16.80;44.30;;;;;;10406633;28;1910;-78
2023/03/08 08:50:06;;;;;;;;;;;16.80;44.30;;;;;;10408452;28;799;-78
2023/03/08 08:55:02;;;;;;;;;;;16.80;44.30;;;;;;10414951;28;862;-78
2023/03/08 08:59:57;;;;;;;;;;;16.80;44.30;;;;;;10414098;28;917;-79
2023/03/08 09:04:53;;;;;;;;;;;16.80;44.20;;;;;;10413910;28;1901;-77
2023/03/08 09:09:48;;;;;;;;;;;17.00;44.30;;;;;;10413785;28;850;-78
2023/03/08 09:14:44;;;;;;;;;;;17.10;44.70;;;;;;10415015;28;858;-77
2023/03/08 09:19:39;;;;;;;;;;;17.20;44.70;;;;;;10414040;28;913;-79
2023/03/08 09:24:34;;;;;;;;;;;17.20;44.70;;;;;;10414250;28;1955;-76
2023/03/08 09:29:30;;;;;;;;;;;17.40;44.90;;;;;;10413630;28;860;-75
2023/03/08 09:34:25;;;;;;;;;;;17.40;44.90;;;;;;10412778;28;802;-77
2023/03/08 09:39:21;;;;;;;;;;;17.30;44.80;;;;;;10411663;28;1407;-76
2023/03/08 09:44:16;;;;;;;;;;;17.20;44.90;;;;;;10412920;28;1913;-76
2023/03/08 09:49:11;;;;;;;;;;;17.20;44.80;;;;;;10412874;28;848;-79
2023/03/08 09:54:07;;;;;;;;;;;17.20;44.80;;;;;;10412099;28;771;-77
2023/03/08 09:59:02;;;;;;;;;;;17.20;44.90;;;;;;10412527;28;846;-76
2023/03/08 10:03:57;;;;;;;;;;;17.20;45.00;;;;;;10411224;28;1965;-76
2023/03/08 10:08:53;;;;;;;;;;;17.20;45.20;;;;;;10411511;28;779;-76
2023/03/08 10:13:48;;;;;;;;;;;17.40;45.40;;;;;;10411303;28;738;-76
2023/03/08 10:18:44;;;;;;;;;;;17.40;45.50;;;;;;10411711;28;895;-76
2023/03/08 10:23:40;;;;;;;;;;;17.40;45.70;;;;;;10411395;28;1910;-76
2023/03/08 10:28:35;;;;;;;;;;;17.40;45.80;;;;;;10384806;28;1062;-76
2023/03/08 10:33:31;;;;;;;;;;;17.50;45.80;;;;;;10368467;28;822;-75
2023/03/08 10:38:26;;;;;;;;;;;17.50;45.90;;;;;;10379453;28;1870;-72
2023/03/08 10:43:22;;;;;;;;;;;17.40;45.80;;;;;;10374562;28;1906;-77
2023/03/08 10:48:17;;;;;;;;;;;17.40;45.60;;;;;;10410463;28;867;-79
2023/03/08 10:53:12;;;;;;;;;;;17.20;45.80;;;;;;10384852;28;1680;-77
2023/03/08 10:58:08;;;;;;;;;;;17.20;45.60;;;;;;10385771;28;767;-78
2023/03/08 11:03:03;;;;;;;;;;;17.10;45.50;;;;;;10368487;28;933;-78
2023/03/08 11:07:59;;;;;;;;;;;17.10;45.60;;;;;;10366413;28;1894;-77
2023/03/08 11:12:55;;;;;;;;;;;17.10;45.40;;;;;;10367801;28;1108;-78
2023/03/08 11:17:50;;;;;;;;;;;17.10;45.40;;;;;;10367351;28;834;-77
2023/03/08 11:22:45;;;;;;;;;;;17.10;45.30;;;;;;10367850;28;851;-77
2023/03/08 11:27:41;;;;;;;;;;;17.10;45.30;;;;;;10367182;28;1906;-77
2023/03/08 11:32:36;;;;;;;;;;;17.10;45.20;;;;;;10366891;28;767;-78
2023/03/08 11:37:31;;;;;;;;;;;17.10;45.20;;;;;;10367348;28;875;-76
2023/03/08 11:42:27;;;;;;;;;;;17.10;45.20;;;;;;10366567;28;1278;-78
2023/03/08 11:47:22;;;;;;;;;;;17.10;45.20;;;;;;10366461;28;1963;-76
2023/03/08 11:52:17;;;;;;;;;;;17.10;45.20;;;;;;10366421;28;826;-80
2023/03/08 11:57:13;;;;;;;;;;;17.10;45.20;;;;;;10365713;28;1118;-78
2023/03/08 12:02:09;;;;;;;;;;;17.10;45.20;;;;;;10366195;28;867;-80
2023/03/08 12:07:05;;;;;;;;;;;17.30;45.50;;;;;;10366039;28;1897;-77
2023/03/08 12:12:00;;;;;;;;;;;17.50;45.40;;;;;;10366608;28;878;-79
2023/03/08 12:16:55;;;;;;;;;;;17.50;45.50;;;;;;10366688;28;845;-80
2023/03/08 12:21:51;;;;;;;;;;;17.50;45.60;;;;;;10366690;28;806;-78
2023/03/08 12:26:47;;;;;;;;;;;17.50;45.50;;;;;;10372631;28;1906;-79
2023/03/08 12:31:42;;;;;;;;;;;17.50;45.60;;;;;;10373739;28;834;-80
2023/03/08 12:36:38;;;;;;;;;;;17.50;45.60;;;;;;10373627;28;826;-75
2023/03/08 12:41:33;;;;;;;;;;;17.50;45.60;;;;;;10373576;28;1320;-79
2023/03/08 12:46:28;;;;;;;;;;;17.50;45.50;;;;;;10373746;28;1977;-80
2023/03/08 12:51:25;;;;;;;;;;;17.60;45.70;;;;;;10373312;28;879;-78
2023/03/08 12:56:20;;;;;;;;;;;17.60;45.60;;;;;;10372878;28;861;-80
2023/03/08 13:01:16;;;;;;;;;;;17.60;45.60;;;;;;10372062;28;861;-77
2023/03/08 13:06:11;;;;;;;;;;;17.60;45.60;;;;;;10373029;28;1973;-80
2023/03/08 13:11:07;;;;;;;;;;;17.60;45.50;;;;;;10371709;28;982;-79
2023/03/08 13:16:02;;;;;;;;;;;17.60;45.60;;;;;;10372068;28;846;-79
2023/03/08 13:20:57;;;;;;;;;;;17.50;45.50;;;;;;10372078;28;925;-79
2023/03/08 13:25:53;;;;;;;;;;;17.50;45.60;;;;;;10372129;28;1906;-80
2023/03/08 13:30:49;;;;;;;;;;;17.50;45.60;;;;;;10371779;28;803;-76
2023/03/08 13:35:44;;;;;;;;;;;17.50;45.60;;;;;;10370802;28;869;-80
2023/03/08 13:40:41;;;;;;;;;;;17.50;45.60;;;;;;10370512;28;1331;-80
2023/03/08 13:45:36;;;;;;;;;;;17.50;45.70;;;;;;10370659;28;1905;-80
2023/03/08 13:50:31;;;;;;;;;;;17.50;45.80;;;;;;10371117;28;789;-79
2023/03/08 13:55:27;;;;;;;;;;;17.40;45.60;;;;;;10370876;28;870;-80
2023/03/08 14:00:22;;;;;;;;;;;17.50;45.60;;;;;;10370078;28;871;-80
2023/03/08 14:05:18;;;;;;;;;;;17.50;46.20;;;;;;10369760;28;1901;-80
2023/03/08 14:10:13;;;;;;;;;;;17.50;45.60;;;;;;10369421;28;1064;-79
2023/03/08 14:15:08;;;;;;;;;;;17.50;45.50;;;;;;10370058;28;925;-78
2023/03/08 14:20:05;;;;;;;;;;;17.60;45.60;;;;;;10369891;28;791;-80
2023/03/08 14:25:01;;;;;;;;;;;17.50;45.60;;;;;;10369165;28;1882;-80
2023/03/08 14:29:56;;;;;;;;;;;17.60;45.70;;;;;;10368341;28;841;-80
2023/03/08 14:34:52;;;;;;;;;;;17.60;45.60;;;;;;10369535;28;894;-79
2023/03/08 14:39:47;;;;;;;;;;;17.60;45.70;;;;;;10368110;28;1363;-77
2023/03/08 14:44:42;;;;;;;;;;;17.60;45.60;;;;;;10368836;28;1914;-79
2023/03/08 14:49:38;;;;;;;;;;;17.60;45.60;;;;;;10367527;28;897;-80
2023/03/08 14:54:33;;;;;;;;;;;17.60;45.70;;;;;;10368505;28;877;-80
2023/03/08 14:59:28;;;;;;;;;;;17.60;45.60;;;;;;10367832;28;884;-79
2023/03/08 15:04:24;;;;;;;;;;;17.60;45.60;;;;;;10367807;28;1902;-80
2023/03/08 15:09:19;;;;;;;;;;;17.60;45.60;;;;;;10365749;28;1014;-80
2023/03/08 15:14:15;;;;;;;;;;;17.60;45.70;;;;;;10367268;28;769;-80
2023/03/08 15:19:12;;;;;;;;;;;17.60;45.80;;;;;;10366928;28;819;-79
2023/03/08 15:24:08;;;;;;;;;;;17.60;45.80;;;;;;10367044;28;1965;-80
2023/03/08 15:29:03;;;;;;;;;;;17.70;45.80;;;;;;10366575;28;1323;-80
2023/03/08 15:34:00;;;;;;;;;;;17.60;45.70;;;;;;10367509;28;794;-80
2023/03/08 15:38:55;;;;;;;;;;;17.60;45.70;;;;;;10366348;28;1132;-80
2023/03/08 15:43:53;;;;;;;;;;;17.70;45.70;;;;;;10367428;28;1950;-77
2023/03/08 15:48:49;;;;;;;;;;;17.50;45.70;;;;;;10367645;28;854;-77
2023/03/08 15:53:45;;;;;;;;;;;17.50;45.50;;;;;;10367067;28;873;-80
2023/03/08 15:58:40;;;;;;;;;;;17.50;45.40;;;;;;10366558;28;848;-80
2023/03/08 16:03:36;;;;;;;;;;;17.60;45.60;;;;;;10365557;28;1902;-80
2023/03/08 16:08:31;;;;;;;;;;;17.60;45.60;;;;;;10366660;28;858;-80
2023/03/08 16:13:26;;;;;;;;;;;17.60;45.50;;;;;;10366611;28;905;-80
2023/03/08 16:18:22;;;;;;;;;;;17.60;45.40;;;;;;10365499;28;1023;-80
2023/03/08 16:23:17;;;;;;;;;;;17.60;45.40;;;;;;10365715;28;883;-80
2023/03/08 16:28:12;;;;;;;;;;;17.60;45.40;;;;;;10365682;28;1887;-80
2023/03/08 16:33:08;;;;;;;;;;;17.50;45.40;;;;;;10366239;28;918;-80
2023/03/08 16:38:03;;;;;;;;;;;17.50;45.30;;;;;;10365555;28;798;-79
2023/03/08 16:42:59;;;;;;;;;;;17.50;45.30;;;;;;10366489;28;1379;-79
2023/03/08 16:47:54;;;;;;;;;;;17.60;45.50;;;;;;10365408;28;1979;-78
2023/03/08 16:52:50;;;;;;;;;;;17.60;45.70;;;;;;10365191;28;908;-80
2023/03/08 16:57:45;;;;;;;;;;;17.60;45.70;;;;;;10365375;28;837;-80
2023/03/08 17:02:40;;;;;;;;;;;17.60;45.80;;;;;;10364678;28;866;-79
2023/03/08 17:07:36;;;;;;;;;;;17.60;45.70;;;;;;10364964;28;1914;-80
2023/03/08 17:12:31;;;;;;;;;;;17.60;45.80;;;;;;10370270;28;954;-80
2023/03/08 17:17:26;;;;;;;;;;;17.60;45.80;;;;;;10373298;28;964;-80
2023/03/08 17:22:22;;;;;;;;;;;17.60;45.70;;;;;;10371958;28;875;-81
2023/03/08 17:27:17;;;;;;;;;;;17.60;45.60;;;;;;10372564;28;1969;-80
2023/03/08 17:32:12;;;;;;;;;;;17.60;45.60;;;;;;10371561;28;863;-79
2023/03/08 17:37:11;;;;;;;;;;;17.70;45.50;;;;;;10371344;28;771;-80
2023/03/08 17:42:06;;;;;;;;;;;17.60;45.50;;;;;;10371478;28;1115;-80
2023/03/08 17:47:02;;;;;;;;;;;17.60;45.60;;;;;;10370922;28;1906;-73
2023/03/08 17:51:57;;;;;;;;;;;17.70;45.60;;;;;;10370962;28;885;-78
2023/03/08 17:56:52;;;;;;;;;;;17.60;45.60;;;;;;10370006;28;775;-78
2023/03/08 18:01:48;;;;;;;;;;;17.60;45.40;;;;;;10370395;28;764;-79
2023/03/08 18:06:43;;;;;;;;;;;17.70;45.30;;;;;;10370365;28;1898;-78
2023/03/08 18:11:40;;;;;;;;;;;17.70;45.40;;;;;;10369993;28;839;-78
2023/03/08 18:16:35;;;;;;;;;;;17.70;45.40;;;;;;10370345;28;866;-78
2023/03/08 18:21:30;;;;;;;;;;;17.70;45.30;;;;;;10370154;28;851;-78
2023/03/08 18:26:26;;;;;;;;;;;17.70;45.30;;;;;;10369301;28;1898;-78
2023/03/08 18:31:24;;;;;;;;;;;17.70;45.20;;;;;;10369244;28;777;-78
2023/03/08 18:36:20;;;;;;;;;;;17.70;45.30;;;;;;10369154;28;850;-78
2023/03/08 18:41:15;;;;;;;;;;;17.70;45.40;;;;;;10368180;28;1215;-78
2023/03/08 18:46:11;;;;;;;;;;;17.70;45.30;;;;;;10368468;28;1901;-78
2023/03/08 18:51:06;;;;;;;;;;;17.70;45.30;;;;;;10369550;28;862;-78
2023/03/08 18:56:03;;;;;;;;;;;17.70;45.30;;;;;;10368842;28;882;-78
2023/03/08 19:01:00;;;;;;;;;;;17.70;45.30;;;;;;10368009;28;933;-78
2023/03/08 19:05:56;;;;;;;;;;;17.70;45.30;;;;;;10367787;28;1894;-78
2023/03/08 19:10:51;;;;;;;;;;;17.70;45.30;;;;;;10367711;28;765;-78
2023/03/08 19:15:46;;;;;;;;;;;17.70;45.30;;;;;;10368168;28;920;-79
2023/03/08 19:20:42;;;;;;;;;;;17.70;45.30;;;;;;10367389;28;804;-77
2023/03/08 19:30:51;;;;;;;;;;;17.60;45.10;;;;;;10367039;28;602;-77
2023/03/08 19:35:46;;;;;;;;;;;17.60;45.10;;;;;;10366471;28;906;-76
2023/03/08 19:40:42;;;;;;;;;;;17.50;45.30;;;;;;10366551;28;1296;-76
2023/03/08 19:45:37;;;;;;;;;;;17.40;45.40;;;;;;10366534;28;1975;-77
2023/03/08 19:50:32;;;;;;;;;;;17.30;45.40;;;;;;10366514;28;885;-77
2023/03/08 19:55:28;;;;;;;;;;;17.30;45.40;;;;;;10366983;28;809;-77
2023/03/08 20:00:23;;;;;;;;;;;17.30;45.30;;;;;;10366919;28;875;-75
2023/03/08 20:05:18;;;;;;;;;;;17.30;45.30;;;;;;10366749;28;1963;-77
2023/03/08 20:10:14;;;;;;;;;;;17.30;45.30;;;;;;10366651;28;987;-74
2023/03/08 20:15:09;;;;;;;;;;;17.30;45.30;;;;;;10366146;28;885;-74
2023/03/08 20:20:05;;;;;;;;;;;17.30;45.30;;;;;;10365348;28;925;-74
2023/03/08 20:25:00;;;;;;;;;;;17.30;45.30;;;;;;10366363;28;1898;-74
2023/03/08 20:29:56;;;;;;;;;;;17.30;45.20;;;;;;10365962;28;831;-74
2023/03/08 20:34:51;;;;;;;;;;;17.30;45.40;;;;;;10365641;28;796;-74
2023/03/08 20:39:46;;;;;;;;;;;17.30;45.30;;;;;;10365233;28;1309;-74
2023/03/08 20:44:42;;;;;;;;;;;17.30;45.20;;;;;;10366561;28;1909;-74
2023/03/08 20:49:38;;;;;;;;;;;17.30;45.30;;;;;;10372640;28;921;-74
2023/03/08 20:54:33;;;;;;;;;;;17.30;45.40;;;;;;10373771;28;835;-74
2023/03/08 20:59:29;;;;;;;;;;;17.20;45.50;;;;;;10372251;28;946;-74
2023/03/08 21:04:24;;;;;;;;;;;17.20;45.40;;;;;;10372598;28;1959;-74
2023/03/08 21:09:19;;;;;;;;;;;17.20;45.50;;;;;;10372433;28;945;-74
2023/03/08 21:14:15;;;;;;;;;;;17.10;45.40;;;;;;10373208;28;794;-74
2023/03/08 21:19:10;;;;;;;;;;;17.20;45.50;;;;;;10372721;28;842;-74
2023/03/08 21:24:05;;;;;;;;;;;17.10;45.50;;;;;;10372112;28;1897;-74
2023/03/08 21:29:01;;;;;;;;;;;17.10;45.50;;;;;;10371845;28;870;-73
2023/03/08 21:33:56;;;;;;;;;;;17.10;45.50;;;;;;10371493;28;980;-74
2023/03/08 21:38:52;;;;;;;;;;;17.10;45.40;;;;;;10371181;28;1119;-74
2023/03/08 21:43:47;;;;;;;;;;;17.20;45.40;;;;;;10371968;28;1909;-74
2023/03/08 21:48:42;;;;;;;;;;;17.10;45.40;;;;;;10370998;28;831;-74
2023/03/08 21:53:38;;;;;;;;;;;17.10;45.50;;;;;;10370822;28;842;-74
2023/03/08 21:58:33;;;;;;;;;;;17.00;45.50;;;;;;10369892;28;862;-74
2023/03/08 22:03:30;;;;;;;;;;;17.10;45.50;;;;;;10370662;28;918;-74
2023/03/08 22:08:25;;;;;;;;;;;17.10;45.50;;;;;;10370063;28;1878;-74
2023/03/08 22:13:20;;;;;;;;;;;17.10;45.50;;;;;;10370005;28;879;-74
2023/03/08 22:18:16;;;;;;;;;;;17.00;45.40;;;;;;10369243;28;897;-74
2023/03/08 22:23:11;;;;;;;;;;;17.10;45.30;;;;;;10369002;28;894;-74
2023/03/08 22:28:07;;;;;;;;;;;17.10;46.00;;;;;;10369889;28;1973;-74
2023/03/08 22:33:02;;;;;;;;;;;17.00;45.40;;;;;;10369236;28;890;-74
2023/03/08 22:37:57;;;;;;;;;;;17.00;45.40;;;;;;10369023;28;823;-74
2023/03/08 22:42:53;;;;;;;;;;;17.00;45.50;;;;;;10367936;28;1238;-74
2023/03/08 22:47:48;;;;;;;;;;;17.00;45.50;;;;;;10350416;28;1914;-74
2023/03/08 22:52:43;;;;;;;;;;;17.00;45.50;;;;;;10368447;28;831;-75
2023/03/08 22:57:39;;;;;;;;;;;17.00;45.40;;;;;;10368910;28;854;-74
2023/03/08 23:02:34;;;;;;;;;;;17.00;45.50;;;;;;10367581;28;952;-74
2023/03/08 23:07:29;;;;;;;;;;;17.00;45.40;;;;;;10367047;28;1902;-74
2023/03/08 23:12:25;;;;;;;;;;;17.00;45.40;;;;;;10368005;28;1031;-74
2023/03/08 23:17:20;;;;;;;;;;;17.00;45.40;;;;;;10367610;28;903;-74
2023/03/08 23:22:15;;;;;;;;;;;17.00;45.40;;;;;;10366804;28;851;-74
2023/03/08 23:27:11;;;;;;;;;;;17.00;45.40;;;;;;10367174;28;1894;-74
2023/03/08 23:32:06;;;;;;;;;;;17.00;45.40;;;;;;10367110;28;762;-74
2023/03/08 23:37:03;;;;;;;;;;;17.00;45.40;;;;;;10366933;28;869;-74
2023/03/08 23:41:58;;;;;;;;;;;17.00;45.40;;;;;;10367094;28;1172;-74
2023/03/08 23:46:53;;;;;;;;;;;17.00;45.30;;;;;;10366600;28;1983;-74
2023/03/08 23:51:49;;;;;;;;;;;17.00;45.40;;;;;;10367140;28;823;-74
2023/03/08 23:56:44;;;;;;;;;;;17.00;45.30;;;;;;10367644;28;898;-74
